Time;durP1;ratioP1;P1;durP2;ratioP2;P2;SDS_P1;SDS_P2;PMS_P1;PMS_P2;Temp;Humidity;BMP_temperature;BMP_pressure;BME280_temperature;BME280_humidity;BME280_pressure;Samples;Min_cycle;Max_cycle;Signal;HPM_P1;HPM_P2
2022/08/10 00:01:17;;;;;;;1.27;0.77;;;21.50;58.30;;;;;;5024683;28;20030;-89
2022/08/10 00:03:43;;;;;;;1.10;0.80;;;21.50;58.90;;;;;;5025282;28;20029;-88
2022/08/10 00:06:08;;;;;;;1.13;0.90;;;21.50;58.90;;;;;;5024277;28;20467;-88
2022/08/10 00:08:35;;;;;;;1.38;1.10;;;21.50;58.70;;;;;;5023326;28;20037;-88
2022/08/10 00:11:01;;;;;;;2.15;0.90;;;21.50;59.10;;;;;;5024180;28;20042;-88
2022/08/10 00:13:26;;;;;;;1.73;1.30;;;21.40;58.90;;;;;;5021719;28;20029;-89
2022/08/10 00:15:53;;;;;;;2.70;0.80;;;21.40;59.20;;;;;;5014925;28;20068;-88
2022/08/10 00:18:19;;;;;;;1.05;0.70;;;21.40;59.40;;;;;;5016779;28;20119;-90
2022/08/10 00:20:44;;;;;;;1.65;1.20;;;21.40;59.80;;;;;;5018534;28;20030;-89
2022/08/10 00:23:10;;;;;;;2.10;0.90;;;21.30;59.60;;;;;;5015124;28;20533;-88
2022/08/10 00:25:36;;;;;;;1.08;0.80;;;21.30;60.00;;;;;;5014824;28;20129;-88
2022/08/10 00:28:02;;;;;;;1.55;0.95;;;21.30;60.00;;;;;;4995668;28;20026;-88
2022/08/10 00:30:28;;;;;;;2.85;1.00;;;21.30;60.20;;;;;;4988802;28;20026;-88
2022/08/10 00:32:54;;;;;;;5.53;1.10;;;21.30;60.20;;;;;;5016078;28;20030;-88
2022/08/10 00:35:19;;;;;;;3.33;1.80;;;21.30;60.30;;;;;;5016486;28;20045;-88
2022/08/10 00:37:45;;;;;;;7.50;2.28;;;21.20;60.40;;;;;;5017035;28;20030;-88
2022/08/10 00:40:11;;;;;;;4.85;2.35;;;21.20;60.30;;;;;;5017012;28;20121;-87
2022/08/10 00:42:37;;;;;;;4.03;2.33;;;21.20;60.30;;;;;;5019357;28;20393;-88
2022/08/10 00:45:03;;;;;;;10.93;2.80;;;21.20;60.50;;;;;;5016156;28;20108;-88
2022/08/10 00:47:29;;;;;;;6.93;2.83;;;21.20;60.60;;;;;;5016230;28;20414;-88
2022/08/10 00:49:55;;;;;;;5.47;1.95;;;21.20;60.40;;;;;;5016458;28;20088;-87
2022/08/10 00:52:23;;;;;;;5.63;2.42;;;21.20;61.00;;;;;;5015505;28;20041;-88
2022/08/10 00:54:49;;;;;;;4.60;2.20;;;21.20;61.00;;;;;;4998489;28;20030;-88
2022/08/10 00:57:15;;;;;;;2.55;1.67;;;21.10;60.70;;;;;;5016169;28;20030;-87
2022/08/10 00:59:42;;;;;;;5.75;1.85;;;21.10;61.20;;;;;;5015398;28;20076;-87
2022/08/10 01:02:08;;;;;;;2.28;1.20;;;21.10;61.00;;;;;;5015732;28;20026;-87
2022/08/10 01:04:34;;;;;;;3.22;1.20;;;21.10;61.30;;;;;;5015808;28;20040;-89
2022/08/10 01:07:34;;;;;;;3.17;1.40;;;21.00;61.80;;;;;;5015884;28;20406;-89
2022/08/10 01:10:08;;;;;;;1.67;1.17;;;20.90;62.00;;;;;;5015338;28;20105;-88
2022/08/10 01:12:55;;;;;;;2.15;1.30;;;20.90;61.80;;;;;;5015291;28;20034;-89
2022/08/10 01:15:33;;;;;;;2.72;1.48;;;20.90;61.80;;;;;;5015584;28;20021;-89
2022/08/10 01:18:07;;;;;;;1.92;0.90;;;20.80;62.40;;;;;;5015605;28;20037;-88
2022/08/10 01:21:04;;;;;;;3.10;1.05;;;20.80;62.50;;;;;;4977520;28;20039;-88
2022/08/10 01:23:51;;;;;;;2.13;1.10;;;20.80;62.60;;;;;;4975912;28;20045;-89
2022/08/10 01:26:32;;;;;;;1.50;1.02;;;20.80;62.90;;;;;;4975629;28;20030;-88
2022/08/10 01:29:22;;;;;;;1.23;1.05;;;20.80;62.40;;;;;;4976506;28;20027;-89
2022/08/10 01:31:52;;;;;;;1.10;0.90;;;20.80;62.50;;;;;;4976346;28;20106;-88
2022/08/10 01:34:44;;;;;;;2.38;1.35;;;20.80;62.60;;;;;;4975793;28;20506;-88
2022/08/10 01:37:13;;;;;;;1.35;0.93;;;20.80;62.60;;;;;;4975067;28;20034;-88
2022/08/10 01:39:43;;;;;;;1.50;1.05;;;20.80;62.70;;;;;;4976217;28;20434;-89
2022/08/10 01:42:13;;;;;;;1.88;1.05;;;20.80;62.80;;;;;;4976623;28;20031;-88
2022/08/10 01:44:44;;;;;;;3.28;1.23;;;20.80;62.80;;;;;;4979430;28;20049;-88
2022/08/10 01:50:10;;;;;;;0.95;0.85;;;20.80;62.90;;;;;;4977401;28;20482;-87
2022/08/10 01:52:41;;;;;;;1.48;1.10;;;20.80;62.90;;;;;;4983639;28;20066;-87
2022/08/10 01:55:09;;;;;;;1.98;1.08;;;20.80;62.60;;;;;;4991161;28;20027;-87
2022/08/10 01:57:36;;;;;;;1.25;0.90;;;20.70;62.90;;;;;;4987597;28;20046;-88
2022/08/10 02:00:04;;;;;;;3.45;1.08;;;20.70;63.00;;;;;;4976442;28;20035;-88
2022/08/10 02:02:30;;;;;;;1.40;1.00;;;20.70;63.20;;;;;;4975487;28;20414;-88
2022/08/10 02:04:58;;;;;;;1.35;1.10;;;20.70;62.90;;;;;;4975610;28;20046;-87
2022/08/10 02:07:26;;;;;;;2.45;1.40;;;20.70;63.30;;;;;;4975132;28;20054;-88
2022/08/10 02:09:57;;;;;;;2.22;0.98;;;20.70;63.10;;;;;;4975361;28;20027;-86
2022/08/10 02:12:29;;;;;;;3.70;1.00;;;20.70;63.20;;;;;;4975111;28;20030;-87
2022/08/10 02:15:21;;;;;;;1.23;0.85;;;20.60;63.00;;;;;;4975050;28;20034;-88
2022/08/10 02:17:53;;;;;;;1.50;1.02;;;20.60;63.50;;;;;;4975374;28;20054;-88
2022/08/10 02:20:22;;;;;;;1.75;0.85;;;20.60;63.80;;;;;;5010261;28;20133;-88
2022/08/10 02:22:58;;;;;;;1.38;1.08;;;20.60;63.50;;;;;;5014636;28;20485;-88
2022/08/10 02:25:25;;;;;;;1.40;1.00;;;20.60;63.70;;;;;;5014243;28;20030;-88
2022/08/10 02:27:52;;;;;;;2.45;1.30;;;20.60;63.80;;;;;;5014407;28;20032;-88
2022/08/10 02:30:18;;;;;;;2.80;0.80;;;20.60;63.60;;;;;;5013511;28;20030;-89
2022/08/10 02:32:46;;;;;;;2.45;0.82;;;20.50;64.00;;;;;;5015544;28;20078;-90
2022/08/10 02:35:13;;;;;;;1.75;1.10;;;20.50;64.10;;;;;;5016438;28;20122;-90
2022/08/10 02:37:42;;;;;;;3.05;1.13;;;20.40;64.20;;;;;;5014259;28;20449;-90
2022/08/10 02:40:09;;;;;;;1.40;1.00;;;20.40;64.20;;;;;;5014208;28;20062;-89
2022/08/10 02:42:41;;;;;;;1.60;0.90;;;20.40;64.50;;;;;;4996243;28;20041;-90
2022/08/10 02:45:10;;;;;;;2.30;1.27;;;20.40;64.90;;;;;;5013928;28;20072;-90
2022/08/10 02:47:43;;;;;;;0.77;0.77;;;20.40;64.40;;;;;;5013583;28;20047;-90
2022/08/10 02:50:17;;;;;;;1.02;0.90;;;20.40;64.60;;;;;;5014206;28;20022;-90
2022/08/10 02:52:57;;;;;;;2.28;1.10;;;20.40;64.80;;;;;;5013483;28;20033;-89
2022/08/10 02:55:43;;;;;;;2.17;1.05;;;20.40;64.20;;;;;;5013198;28;20041;-89
2022/08/10 02:58:27;;;;;;;2.15;0.98;;;20.40;64.50;;;;;;5013861;28;20030;-90
2022/08/10 03:00:55;;;;;;;1.15;0.85;;;20.40;64.60;;;;;;5014185;28;20109;-89
2022/08/10 03:03:27;;;;;;;1.88;1.13;;;20.30;65.10;;;;;;5013258;28;20030;-89
2022/08/10 03:05:58;;;;;;;3.00;1.00;;;20.30;65.20;;;;;;5013792;28;20029;-89
2022/08/10 03:08:29;;;;;;;1.35;1.00;;;20.20;65.20;;;;;;5013315;28;20509;-89
2022/08/10 03:10:56;;;;;;;1.33;1.10;;;20.30;65.30;;;;;;5013822;28;20049;-90
2022/08/10 03:13:23;;;;;;;2.75;1.20;;;20.20;65.30;;;;;;5012973;28;20030;-87
2022/08/10 03:15:50;;;;;;;2.58;1.30;;;20.20;65.60;;;;;;5013818;28;20038;-88
2022/08/10 03:18:17;;;;;;;3.20;1.30;;;20.20;65.50;;;;;;5014173;28;20030;-89
2022/08/10 03:20:44;;;;;;;1.67;1.13;;;20.20;65.60;;;;;;5015147;28;20026;-90
2022/08/10 03:23:16;;;;;;;2.40;1.10;;;20.20;65.60;;;;;;5015385;28;20066;-90
2022/08/10 03:25:46;;;;;;;4.85;1.10;;;20.20;65.80;;;;;;5013537;28;20036;-89
2022/08/10 03:28:13;;;;;;;1.45;0.88;;;20.20;65.60;;;;;;5015029;28;20091;-88
2022/08/10 03:30:39;;;;;;;1.17;0.93;;;20.20;65.80;;;;;;5018993;28;20029;-87
2022/08/10 03:33:07;;;;;;;1.25;1.00;;;20.20;66.10;;;;;;5027993;28;20030;-87
2022/08/10 03:35:34;;;;;;;1.45;1.15;;;20.20;65.90;;;;;;5028220;28;20026;-89
2022/08/10 03:38:00;;;;;;;2.97;1.10;;;20.10;66.00;;;;;;5024903;28;20033;-89
2022/08/10 03:40:29;;;;;;;1.48;1.08;;;20.10;67.10;;;;;;5015780;28;20451;-89
2022/08/10 03:42:56;;;;;;;1.23;1.00;;;20.10;66.60;;;;;;5016018;28;20057;-90
2022/08/10 03:45:23;;;;;;;2.83;1.30;;;20.00;67.00;;;;;;5015956;28;20029;-87
2022/08/10 03:47:50;;;;;;;1.33;1.20;;;20.00;67.30;;;;;;5014990;28;20331;-90
2022/08/10 03:50:17;;;;;;;3.40;1.98;;;19.90;67.40;;;;;;5016655;28;20029;-89
2022/08/10 03:52:43;;;;;;;1.48;1.27;;;19.90;68.00;;;;;;5015644;28;20026;-89
2022/08/10 03:55:10;;;;;;;3.42;1.50;;;19.80;67.90;;;;;;5012507;28;20022;-89
2022/08/10 03:57:36;;;;;;;2.20;1.40;;;19.80;68.50;;;;;;5014080;28;20096;-88
2022/08/10 04:00:03;;;;;;;1.75;1.17;;;19.80;68.80;;;;;;5016250;28;20029;-89
2022/08/10 04:02:30;;;;;;;2.50;1.23;;;19.70;69.10;;;;;;5016923;28;20109;-89
2022/08/10 04:04:55;;;;;;;2.10;1.10;;;19.70;69.40;;;;;;5016389;28;20362;-90
2022/08/10 04:07:22;;;;;;;2.28;1.33;;;19.70;69.30;;;;;;5018443;28;20022;-90
2022/08/10 04:09:47;;;;;;;2.15;1.30;;;19.60;69.60;;;;;;5019274;28;20076;-90
2022/08/10 04:12:14;;;;;;;3.10;1.60;;;19.60;69.80;;;;;;5019830;28;20108;-90
2022/08/10 04:14:40;;;;;;;2.15;1.15;;;19.60;69.90;;;;;;5018138;28;20029;-90
2022/08/10 04:17:05;;;;;;;4.05;1.40;;;19.60;70.10;;;;;;5017079;28;20033;-90
2022/08/10 04:19:44;;;;;;;2.65;1.20;;;19.60;70.40;;;;;;5012794;28;20484;-88
2022/08/10 04:22:16;;;;;;;1.95;1.35;;;19.60;70.00;;;;;;5016771;28;20065;-88
2022/08/10 04:24:45;;;;;;;2.47;1.20;;;19.60;70.50;;;;;;5016062;28;20088;-87
2022/08/10 04:27:11;;;;;;;2.65;1.42;;;19.60;70.40;;;;;;5017682;28;20113;-89
2022/08/10 04:29:38;;;;;;;3.40;1.48;;;19.60;70.10;;;;;;5015959;28;20025;-89
2022/08/10 04:32:04;;;;;;;2.65;1.35;;;19.60;70.20;;;;;;5016797;28;20065;-89
2022/08/10 04:34:31;;;;;;;3.08;1.38;;;19.60;70.20;;;;;;5016551;28;20030;-88
2022/08/10 04:37:02;;;;;;;2.53;1.60;;;19.60;70.40;;;;;;5016909;28;20125;-89
2022/08/10 04:39:28;;;;;;;3.53;1.13;;;19.70;70.40;;;;;;5015769;28;20030;-87
2022/08/10 04:41:54;;;;;;;1.55;1.30;;;19.70;70.40;;;;;;5016049;28;20037;-88
2022/08/10 04:44:20;;;;;;;2.70;1.60;;;19.80;70.50;;;;;;5015948;28;20034;-89
2022/08/10 04:46:45;;;;;;;1.98;1.27;;;19.80;70.60;;;;;;5017688;28;20022;-89
2022/08/10 04:49:11;;;;;;;4.15;1.40;;;19.90;70.50;;;;;;5016356;28;20026;-89
2022/08/10 04:51:37;;;;;;;2.75;1.60;;;20.00;70.20;;;;;;5018395;28;20034;-89
2022/08/10 04:54:02;;;;;;;2.47;1.40;;;20.00;70.10;;;;;;5023534;28;20026;-88
2022/08/10 04:56:29;;;;;;;3.53;1.70;;;20.10;69.80;;;;;;5022261;28;20425;-82
2022/08/10 04:58:55;;;;;;;2.60;1.20;;;20.30;69.60;;;;;;5023884;28;20076;-87
2022/08/10 05:01:21;;;;;;;5.20;1.40;;;20.30;69.20;;;;;;5025346;28;20026;-90
2022/08/10 05:03:46;;;;;;;1.40;1.30;;;20.40;68.90;;;;;;5027617;28;20189;-89
2022/08/10 05:06:12;;;;;;;1.92;1.40;;;20.50;68.60;;;;;;5026438;28;20034;-90
2022/08/10 05:08:38;;;;;;;1.92;1.23;;;20.60;68.00;;;;;;5026079;28;20037;-89
2022/08/10 05:11:03;;;;;;;1.83;1.38;;;20.60;67.60;;;;;;5027386;28;20535;-90
2022/08/10 05:13:29;;;;;;;1.73;1.38;;;20.60;68.30;;;;;;5028492;28;20036;-82
2022/08/10 05:15:55;;;;;;;1.42;1.13;;;20.70;67.90;;;;;;5028125;28;20038;-89
2022/08/10 05:18:21;;;;;;;4.25;1.40;;;20.70;67.70;;;;;;5027047;28;20033;-86
2022/08/10 05:20:47;;;;;;;3.55;1.20;;;20.70;67.70;;;;;;5028223;28;20029;-89
2022/08/10 05:23:12;;;;;;;3.65;1.50;;;20.80;67.90;;;;;;5027932;28;20029;-90
2022/08/10 05:25:38;;;;;;;5.68;1.60;;;21.00;67.40;;;;;;5025426;28;20021;-89
2022/08/10 05:28:04;;;;;;;1.48;1.30;;;21.20;66.40;;;;;;5021574;28;20343;-89
2022/08/10 05:30:30;;;;;;;5.22;1.75;;;21.30;66.80;;;;;;5028453;28;20026;-79
2022/08/10 05:32:56;;;;;;;3.05;1.23;;;21.50;65.90;;;;;;5027264;28;20219;-89
2022/08/10 05:35:22;;;;;;;4.90;1.50;;;21.60;65.10;;;;;;5024715;28;20040;-88
2022/08/10 05:37:50;;;;;;;3.35;1.23;;;21.80;65.00;;;;;;5018554;28;20038;-88
2022/08/10 05:40:16;;;;;;;2.22;1.40;;;22.20;63.80;;;;;;5017457;28;20030;-90
2022/08/10 05:42:42;;;;;;;2.47;1.48;;;22.40;62.20;;;;;;5017280;28;20025;-91
2022/08/10 05:45:19;;;;;;;3.08;1.40;;;22.70;61.10;;;;;;5016546;28;20471;-90
2022/08/10 05:47:45;;;;;;;5.13;1.60;;;23.00;59.60;;;;;;5015417;28;20085;-90
2022/08/10 05:50:11;;;;;;;1.88;1.30;;;23.30;58.10;;;;;;5016731;28;20064;-89
2022/08/10 05:52:37;;;;;;;1.50;1.10;;;23.70;57.60;;;;;;5015354;28;20109;-86
2022/08/10 05:55:03;;;;;;;4.18;1.13;;;24.10;56.20;;;;;;4996696;28;20577;-90
2022/08/10 05:57:29;;;;;;;1.98;1.13;;;24.70;54.50;;;;;;5015867;28;20037;-91
2022/08/10 06:00:07;;;;;;;2.65;1.27;;;25.40;52.90;;;;;;5016001;28;20117;-91
2022/08/10 06:02:39;;;;;;;1.55;1.20;;;26.20;50.60;;;;;;5015524;28;20037;-83
2022/08/10 06:05:14;;;;;;;1.92;1.17;;;27.10;48.90;;;;;;5017378;28;20060;-91
2022/08/10 06:07:51;;;;;;;0.98;0.90;;;27.90;46.40;;;;;;5015300;28;20029;-90
2022/08/10 06:10:19;;;;;;;3.30;1.33;;;28.70;44.20;;;;;;5015295;28;20026;-89
2022/08/10 06:14:59;;;;;;;1.70;1.13;;;29.30;43.70;;;;;;5014925;28;20379;-91
2022/08/10 06:15:39;;;;;;;3.75;1.17;;;29.60;42.30;;;;;;5014327;28;20422;-90
2022/08/10 06:18:06;;;;;;;1.23;1.00;;;30.10;41.10;;;;;;5015176;28;20105;-90
2022/08/10 06:20:32;;;;;;;2.17;1.20;;;30.30;40.80;;;;;;5012777;28;20053;-87
2022/08/10 06:23:00;;;;;;;1.77;1.35;;;30.60;40.50;;;;;;5014910;28;20069;-90
2022/08/10 06:25:30;;;;;;;1.63;1.20;;;30.50;40.10;;;;;;5015211;28;20117;-90
2022/08/10 06:27:57;;;;;;;2.95;1.13;;;30.70;39.60;;;;;;5015118;28;20034;-90
2022/08/10 06:30:26;;;;;;;1.40;1.20;;;30.60;39.50;;;;;;5014871;28;20113;-90
2022/08/10 06:32:55;;;;;;;1.75;1.10;;;30.10;40.70;;;;;;5014734;28;20104;-90
2022/08/10 06:35:22;;;;;;;4.00;1.30;;;30.20;41.00;;;;;;5022355;28;20056;-89
2022/08/10 06:37:49;;;;;;;3.45;1.45;;;30.30;40.80;;;;;;5027979;28;20037;-90
2022/08/10 06:40:15;;;;;;;4.45;1.50;;;30.40;39.80;;;;;;5027866;28;20041;-89
2022/08/10 06:42:47;;;;;;;2.95;1.50;;;30.30;40.40;;;;;;5026402;28;20021;-90
2022/08/10 06:45:20;;;;;;;2.45;1.45;;;29.90;40.60;;;;;;5026971;28;20030;-89
2022/08/10 06:48:05;;;;;;;2.88;1.45;;;29.80;41.30;;;;;;5025901;28;20037;-90
2022/08/10 06:50:42;;;;;;;3.63;2.30;;;29.80;41.00;;;;;;5030360;28;20036;-91
2022/08/10 06:53:15;;;;;;;2.10;1.52;;;29.50;41.10;;;;;;5036609;28;20033;-89
2022/08/10 06:55:47;;;;;;;2.55;1.15;;;29.40;41.30;;;;;;5034467;28;20110;-85
2022/08/10 06:58:14;;;;;;;2.28;1.20;;;29.50;42.30;;;;;;5036158;28;20026;-89
2022/08/10 07:00:42;;;;;;;2.78;1.30;;;29.70;42.20;;;;;;5036386;28;20041;-84
2022/08/10 07:03:11;;;;;;;3.13;1.33;;;30.20;41.50;;;;;;5033085;28;20079;-91
2022/08/10 07:05:46;;;;;;;4.07;1.50;;;30.60;40.50;;;;;;5006094;28;20034;-81
2022/08/10 07:08:13;;;;;;;2.25;1.23;;;30.70;40.40;;;;;;5017649;28;20042;-89
2022/08/10 07:10:41;;;;;;;1.15;1.00;;;31.40;39.60;;;;;;5016239;28;20022;-88
2022/08/10 07:13:08;;;;;;;2.17;1.02;;;31.90;39.00;;;;;;5015806;28;20034;-90
2022/08/10 07:15:36;;;;;;;3.58;1.23;;;32.50;37.70;;;;;;5018716;28;20061;-87
2022/08/10 07:18:04;;;;;;;2.55;1.08;;;33.10;37.50;;;;;;5023856;28;20030;-88
2022/08/10 07:20:31;;;;;;;2.03;1.52;;;33.90;36.70;;;;;;5030043;28;20069;-89
2022/08/10 07:22:58;;;;;;;3.10;1.80;;;34.90;35.80;;;;;;5023881;28;20041;-90
2022/08/10 07:25:27;;;;;;;2.20;1.00;;;35.60;34.70;;;;;;5018468;28;20391;-90
2022/08/10 07:27:55;;;;;;;2.17;1.15;;;36.30;34.00;;;;;;5016746;28;20026;-89
2022/08/10 07:30:21;;;;;;;2.92;1.00;;;37.10;33.00;;;;;;5015523;28;20041;-90
2022/08/10 07:32:50;;;;;;;2.10;1.30;;;37.70;32.40;;;;;;5013836;28;20444;-89
2022/08/10 07:35:20;;;;;;;2.55;1.27;;;38.10;31.50;;;;;;5013820;28;20061;-89
2022/08/10 07:37:48;;;;;;;2.38;1.25;;;38.30;30.80;;;;;;5013510;28;20030;-91
2022/08/10 07:40:19;;;;;;;1.83;1.02;;;38.40;30.80;;;;;;4996066;28;20467;-89
2022/08/10 07:42:47;;;;;;;2.05;1.20;;;38.70;30.70;;;;;;5016431;28;20076;-89
2022/08/10 07:45:14;;;;;;;3.25;1.25;;;39.00;30.20;;;;;;5000229;28;20030;-88
2022/08/10 07:48:01;;;;;;;1.55;1.00;;;39.30;30.00;;;;;;5018227;28;20463;-81
2022/08/10 07:50:29;;;;;;;1.52;1.00;;;39.80;30.30;;;;;;5018524;28;20113;-89
2022/08/10 07:53:00;;;;;;;3.30;1.23;;;40.20;29.50;;;;;;5028622;28;20049;-86
2022/08/10 07:55:27;;;;;;;1.58;1.00;;;40.60;29.10;;;;;;5040583;28;20056;-89
2022/08/10 07:57:56;;;;;;;3.38;1.00;;;40.70;29.00;;;;;;5022637;28;20037;-89
2022/08/10 08:00:24;;;;;;;1.75;1.02;;;41.00;28.80;;;;;;5022169;28;20033;-88
2022/08/10 08:02:53;;;;;;;1.90;1.10;;;41.10;28.60;;;;;;5000286;28;20026;-88
2022/08/10 08:05:22;;;;;;;1.77;1.17;;;41.30;28.80;;;;;;4998367;28;20082;-89
2022/08/10 08:07:50;;;;;;;1.80;1.15;;;41.80;28.30;;;;;;4998104;28;20026;-89
2022/08/10 08:10:17;;;;;;;2.35;1.30;;;42.10;28.10;;;;;;4998361;28;20064;-88
2022/08/10 08:12:44;;;;;;;3.42;1.35;;;42.40;27.80;;;;;;4997224;28;20173;-83
2022/08/10 08:15:13;;;;;;;2.22;1.13;;;42.50;27.60;;;;;;4998337;28;20113;-87
2022/08/10 08:17:40;;;;;;;3.63;0.90;;;42.80;27.70;;;;;;4997131;28;20030;-87
2022/08/10 08:20:07;;;;;;;2.67;0.95;;;42.80;28.00;;;;;;4997415;28;20038;-88
2022/08/10 08:22:35;;;;;;;1.52;1.20;;;43.00;27.20;;;;;;4997405;28;20026;-88
2022/08/10 08:25:02;;;;;;;2.90;1.10;;;43.00;27.30;;;;;;4996362;28;20030;-89
2022/08/10 08:27:28;;;;;;;1.65;1.08;;;43.10;27.90;;;;;;5009366;28;20037;-88
2022/08/10 08:29:55;;;;;;;2.00;1.10;;;43.30;27.10;;;;;;5015826;28;20030;-88
2022/08/10 08:32:24;;;;;;;1.50;1.13;;;43.40;27.20;;;;;;5017418;28;20041;-86
2022/08/10 08:35:02;;;;;;;1.50;0.80;;;43.60;28.20;;;;;;5018971;28;20391;-87
2022/08/10 08:37:30;;;;;;;1.48;1.30;;;43.60;27.20;;;;;;5020412;28;20049;-87
2022/08/10 08:39:56;;;;;;;3.78;1.02;;;43.50;27.20;;;;;;5015385;28;20062;-87
2022/08/10 08:42:43;;;;;;;1.80;1.05;;;43.40;26.80;;;;;;5016852;28;20030;-86
2022/08/10 08:45:24;;;;;;;1.05;0.95;;;43.20;26.70;;;;;;5015632;28;20026;-86
2022/08/10 08:47:58;;;;;;;1.42;1.13;;;42.50;27.10;;;;;;5014786;28;20109;-86
2022/08/10 08:50:48;;;;;;;2.03;1.10;;;42.20;26.90;;;;;;5016324;28;20022;-86
2022/08/10 08:53:51;;;;;;;0.65;0.65;;;41.10;26.60;;;;;;5015900;28;20030;-87
2022/08/10 08:56:53;;;;;;;1.75;0.93;;;40.30;26.80;;;;;;5015675;28;20046;-88
2022/08/10 08:59:43;;;;;;;1.48;1.02;;;39.40;27.80;;;;;;5017982;28;20098;-88
2022/08/10 09:02:40;;;;;;;1.25;0.90;;;38.50;27.50;;;;;;5025914;28;20470;-86
2022/08/10 09:05:08;;;;;;;1.83;1.10;;;37.60;28.30;;;;;;5015650;28;20026;-86
2022/08/10 09:07:48;;;;;;;1.33;1.08;;;36.70;28.90;;;;;;5020174;28;20360;-88
2022/08/10 09:10:38;;;;;;;1.83;1.20;;;36.50;29.40;;;;;;5015702;28;20026;-87
2022/08/10 09:13:03;;;;;;;;;;;35.80;29.10;;;;;;5016286;28;20463;-87
2022/08/10 09:15:36;;;;;;;2.33;1.20;;;35.40;29.80;;;;;;5016059;28;20051;-86
2022/08/10 09:18:06;;;;;;;1.40;1.00;;;34.80;29.90;;;;;;5014875;28;20117;-88
2022/08/10 09:20:40;;;;;;;1.65;0.98;;;34.30;30.30;;;;;;5015753;28;20054;-89
2022/08/10 09:23:44;;;;;;;1.30;1.00;;;34.00;31.60;;;;;;5015087;28;20416;-89
2022/08/10 09:26:21;;;;;;;2.65;0.98;;;33.50;30.90;;;;;;4965075;28;20036;-89
2022/08/10 09:28:53;;;;;;;1.45;1.05;;;33.20;31.70;;;;;;5014808;28;20112;-82
2022/08/10 09:31:24;;;;;;;2.25;1.00;;;33.00;32.40;;;;;;5015085;28;20022;-88
2022/08/10 09:34:02;;;;;;;1.52;1.02;;;32.80;31.60;;;;;;5014756;28;20128;-86
2022/08/10 09:36:49;;;;;;;2.47;1.30;;;32.50;32.60;;;;;;5015206;28;20370;-88
2022/08/10 09:39:21;;;;;;;1.35;1.15;;;31.90;31.80;;;;;;5015293;28;20102;-90
2022/08/10 09:42:13;;;;;;;2.22;1.20;;;31.50;32.40;;;;;;5015221;28;20037;-89
2022/08/10 09:44:43;;;;;;;3.90;1.05;;;31.40;32.80;;;;;;5015029;28;20116;-89
2022/08/10 09:47:50;;;;;;;2.03;1.17;;;31.40;33.30;;;;;;5015519;28;20464;-89
2022/08/10 09:50:21;;;;;;;1.38;1.20;;;31.30;33.60;;;;;;5015774;28;20073;-89
2022/08/10 09:52:50;;;;;;;2.55;1.17;;;31.20;33.10;;;;;;5015289;28;20036;-89
2022/08/10 09:55:38;;;;;;;1.55;1.00;;;31.10;32.60;;;;;;5014875;28;20423;-89
2022/08/10 09:58:38;;;;;;;1.50;0.88;;;30.90;32.70;;;;;;5011735;28;20056;-89
2022/08/10 10:01:26;;;;;;;1.83;1.02;;;30.70;33.20;;;;;;5014840;28;20035;-89
2022/08/10 10:04:32;;;;;;;1.55;1.10;;;30.70;33.10;;;;;;5016116;28;20101;-88
2022/08/10 10:07:03;;;;;;;1.02;0.80;;;30.50;33.20;;;;;;5014554;28;20026;-89
2022/08/10 10:09:52;;;;;;;1.63;0.90;;;30.60;35.10;;;;;;4997321;28;20037;-89
2022/08/10 10:12:36;;;;;;;1.13;0.95;;;30.60;34.90;;;;;;5014758;28;20026;-88
2022/08/10 10:15:27;;;;;;;1.20;0.95;;;30.50;33.60;;;;;;5013222;28;20042;-89
2022/08/10 10:18:01;;;;;;;1.30;0.90;;;30.50;34.50;;;;;;5013604;28;20044;-86
2022/08/10 10:20:33;;;;;;;1.08;0.98;;;30.50;33.80;;;;;;5013621;28;20061;-88
2022/08/10 10:23:36;;;;;;;1.10;1.00;;;30.40;33.30;;;;;;5013844;28;20370;-87
2022/08/10 10:26:30;;;;;;;1.30;0.98;;;30.20;33.90;;;;;;5014976;28;20026;-88
2022/08/10 10:29:09;;;;;;;1.05;0.80;;;30.20;33.70;;;;;;5019410;28;20028;-88
2022/08/10 10:31:50;;;;;;;1.13;0.70;;;30.20;33.60;;;;;;5014343;28;20030;-89
2022/08/10 10:34:39;;;;;;;1.95;1.00;;;30.20;34.00;;;;;;5013729;28;20030;-89
2022/08/10 10:37:06;;;;;;;1.40;1.00;;;30.20;34.20;;;;;;5013913;28;20066;-87
2022/08/10 10:39:34;;;;;;;1.48;0.80;;;30.20;33.70;;;;;;5014189;28;20103;-86
2022/08/10 10:42:09;;;;;;;2.33;1.00;;;30.00;33.60;;;;;;5013829;28;20026;-89
2022/08/10 10:45:03;;;;;;;3.00;1.10;;;29.90;34.00;;;;;;5014062;28;20040;-88
2022/08/10 10:47:54;;;;;;;2.47;1.10;;;29.90;34.40;;;;;;5015713;28;20097;-86
2022/08/10 10:50:26;;;;;;;2.55;1.38;;;29.90;34.10;;;;;;5018790;28;20022;-88
2022/08/10 10:53:12;;;;;;;2.95;0.85;;;29.90;33.60;;;;;;5015316;28;20559;-89
2022/08/10 10:55:49;;;;;;;2.03;1.10;;;29.90;33.50;;;;;;5014680;28;20033;-87
2022/08/10 10:58:27;;;;;;;1.23;1.00;;;29.90;33.90;;;;;;5014109;28;20041;-89
2022/08/10 11:01:24;;;;;;;2.97;1.17;;;29.90;33.70;;;;;;5014695;28;20056;-86
2022/08/10 11:04:05;;;;;;;1.67;1.10;;;29.90;33.70;;;;;;5014985;28;20037;-88
2022/08/10 11:06:39;;;;;;;;;;;30.00;34.30;;;;;;5015463;28;20030;-88
2022/08/10 11:09:16;;;;;;;1.27;0.90;;;30.10;33.90;;;;;;5013838;28;20376;-88
2022/08/10 11:11:44;;;;;;;1.30;1.02;;;30.00;33.50;;;;;;5014996;28;20053;-88
2022/08/10 11:14:23;;;;;;;2.53;0.88;;;30.10;34.20;;;;;;5013455;28;20053;-88
2022/08/10 11:17:04;;;;;;;3.47;1.10;;;30.20;33.70;;;;;;5013990;28;20099;-88
2022/08/10 11:19:41;;;;;;;1.42;1.02;;;30.30;32.40;;;;;;5013933;28;20084;-87
2022/08/10 11:22:21;;;;;;;1.15;0.90;;;30.30;32.30;;;;;;5014545;28;20164;-87
2022/08/10 11:25:00;;;;;;;1.45;1.10;;;30.40;32.60;;;;;;5019890;28;20091;-86
2022/08/10 11:27:43;;;;;;;0.95;0.90;;;30.40;32.80;;;;;;5016875;28;20042;-87
2022/08/10 11:30:17;;;;;;;1.75;0.93;;;30.50;33.20;;;;;;5013853;28;20030;-88
2022/08/10 11:33:08;;;;;;;1.50;1.13;;;30.50;32.60;;;;;;5013479;28;20045;-88
2022/08/10 11:35:40;;;;;;;1.45;1.20;;;30.70;32.80;;;;;;5012647;28;20057;-88
2022/08/10 11:38:51;;;;;;;1.10;0.98;;;30.70;32.40;;;;;;5012005;28;20094;-88
2022/08/10 11:41:40;;;;;;;1.73;0.88;;;30.70;32.20;;;;;;4936623;28;20053;-89
2022/08/10 11:44:33;;;;;;;1.02;0.80;;;30.70;32.30;;;;;;5012437;28;20490;-88
2022/08/10 11:47:04;;;;;;;1.20;0.90;;;30.60;31.40;;;;;;4996095;28;20520;-87
2022/08/10 11:49:36;;;;;;;1.70;0.90;;;30.40;31.60;;;;;;5010313;28;20046;-87
2022/08/10 11:52:09;;;;;;;1.77;1.10;;;30.40;31.90;;;;;;5012290;28;20513;-87
2022/08/10 11:54:53;;;;;;;0.90;0.85;;;30.50;32.10;;;;;;5012790;28;20164;-88
2022/08/10 11:57:24;;;;;;;1.75;1.00;;;30.50;31.60;;;;;;5012323;28;20447;-87
2022/08/10 11:59:55;;;;;;;2.15;0.85;;;30.50;31.40;;;;;;5012921;28;20030;-88
2022/08/10 12:02:32;;;;;;;1.15;0.82;;;30.60;31.80;;;;;;5012384;28;20053;-87
2022/08/10 12:05:14;;;;;;;1.00;0.90;;;30.60;30.20;;;;;;4994971;28;20126;-81
2022/08/10 12:07:42;;;;;;;2.15;1.00;;;30.60;30.40;;;;;;5012423;28;20090;-89
2022/08/10 12:10:08;;;;;;;1.63;1.00;;;30.50;31.20;;;;;;5012197;28;20025;-89
2022/08/10 12:12:41;;;;;;;1.00;0.90;;;30.50;30.90;;;;;;5012336;28;20037;-88
2022/08/10 12:15:14;;;;;;;1.25;0.88;;;30.40;30.90;;;;;;5012328;28;20036;-88
2022/08/10 12:17:48;;;;;;;1.83;1.02;;;30.40;31.30;;;;;;5012483;28;20117;-89
2022/08/10 12:20:23;;;;;;;0.93;0.90;;;30.30;31.60;;;;;;5008511;28;20074;-89
2022/08/10 12:22:57;;;;;;;1.00;0.90;;;30.20;31.60;;;;;;5012670;28;20570;-88
2022/08/10 12:25:55;;;;;;;0.88;0.75;;;30.20;32.00;;;;;;5013852;28;20036;-88
2022/08/10 12:28:39;;;;;;;1.13;0.73;;;30.20;32.00;;;;;;4944284;28;20043;-86
2022/08/10 12:31:10;;;;;;;2.83;1.00;;;30.10;32.00;;;;;;4999561;28;20030;-87
2022/08/10 12:34:07;;;;;;;1.48;0.90;;;30.10;32.60;;;;;;5003520;28;20053;-85
2022/08/10 12:36:46;;;;;;;0.63;0.60;;;30.00;32.30;;;;;;5001522;28;20117;-87
2022/08/10 12:39:20;;;;;;;1.30;0.90;;;29.90;33.10;;;;;;4995837;28;20026;-86
2022/08/10 12:42:05;;;;;;;0.93;0.82;;;29.80;32.80;;;;;;4996313;28;20026;-88
2022/08/10 12:44:53;;;;;;;0.90;0.77;;;29.80;33.50;;;;;;4996533;28;20058;-88
2022/08/10 12:47:39;;;;;;;1.38;0.82;;;29.70;32.80;;;;;;4996392;28;20026;-89
2022/08/10 12:50:28;;;;;;;1.13;0.88;;;29.60;32.40;;;;;;4995929;28;20025;-88
2022/08/10 12:53:02;;;;;;;1.35;1.05;;;29.50;32.90;;;;;;4996202;28;20101;-88
2022/08/10 12:55:31;;;;;;;1.40;0.77;;;29.50;32.90;;;;;;4996600;28;20368;-88
2022/08/10 12:57:57;;;;;;;1.25;1.02;;;29.40;32.20;;;;;;4996372;28;20056;-88
2022/08/10 13:00:32;;;;;;;0.98;0.90;;;29.40;32.50;;;;;;4996333;28;20030;-89
2022/08/10 13:03:00;;;;;;;0.95;0.77;;;29.30;32.80;;;;;;4978548;28;20053;-89
2022/08/10 13:05:28;;;;;;;1.40;1.00;;;29.30;33.10;;;;;;4996031;28;20126;-89
2022/08/10 13:10:51;;;;;;;2.95;1.10;;;29.00;33.20;;;;;;4996556;28;20036;-88
2022/08/10 13:13:21;;;;;;;2.08;0.90;;;29.00;33.80;;;;;;4998239;28;20065;-87
2022/08/10 13:15:48;;;;;;;1.27;1.15;;;29.00;33.80;;;;;;4998619;28;20070;-88
2022/08/10 13:18:16;;;;;;;0.95;0.93;;;28.90;33.80;;;;;;4998651;28;20062;-87
2022/08/10 13:20:42;;;;;;;2.45;1.00;;;28.90;33.80;;;;;;4996873;28;20450;-87
2022/08/10 13:23:16;;;;;;;1.30;1.20;;;28.90;34.40;;;;;;4995803;28;20072;-90